sensor_id;sensor_type;location;lat;lon;timestamp;P1;durP1;ratioP1;P2;durP2;ratioP2
33266;SDS011;19638;49.080;11.896;2024-01-30T03:05:07;44.93;;;17.87;;
33266;SDS011;19638;49.080;11.896;2024-01-30T03:09:10;48.63;;;17.53;;
33266;SDS011;19638;49.080;11.896;2024-01-30T03:13:14;44.10;;;16.40;;
33266;SDS011;19638;49.080;11.896;2024-01-30T03:17:17;44.47;;;18.00;;
33266;SDS011;19638;49.080;11.896;2024-01-30T03:21:21;39.90;;;18.13;;
33266;SDS011;19638;49.080;11.896;2024-01-30T03:25:24;41.73;;;18.43;;
33266;SDS011;19638;49.080;11.896;2024-01-30T03:29:28;48.30;;;19.63;;
33266;SDS011;19638;49.080;11.896;2024-01-30T03:33:31;42.03;;;18.43;;
33266;SDS011;19638;49.080;11.896;2024-01-30T03:37:35;46.40;;;19.23;;
33266;SDS011;19638;49.080;11.896;2024-01-30T03:41:41;55.00;;;19.90;;
33266;SDS011;19638;49.080;11.896;2024-01-30T03:45:44;56.80;;;21.43;;
33266;SDS011;19638;49.080;11.896;2024-01-30T03:49:48;51.30;;;21.57;;
33266;SDS011;19638;49.080;11.896;2024-01-30T03:53:52;59.90;;;21.33;;
33266;SDS011;19638;49.080;11.896;2024-01-30T03:57:56;59.77;;;22.43;;
33266;SDS011;19638;49.080;11.896;2024-01-30T04:01:59;60.70;;;22.87;;
33266;SDS011;19638;49.080;11.896;2024-01-30T04:06:03;63.30;;;23.30;;
33266;SDS011;19638;49.080;11.896;2024-01-30T04:10:09;75.10;;;25.03;;
33266;SDS011;19638;49.080;11.896;2024-01-30T04:14:12;67.33;;;25.17;;
33266;SDS011;19638;49.080;11.896;2024-01-30T04:18:15;71.90;;;26.30;;
33266;SDS011;19638;49.080;11.896;2024-01-30T04:22:19;69.60;;;27.23;;
33266;SDS011;19638;49.080;11.896;2024-01-30T04:26:23;68.80;;;26.40;;
33266;SDS011;19638;49.080;11.896;2024-01-30T04:30:26;71.83;;;26.03;;
33266;SDS011;19638;49.080;11.896;2024-01-30T04:34:29;77.40;;;26.43;;
33266;SDS011;19638;49.080;11.896;2024-01-30T04:38:33;76.73;;;27.47;;
33266;SDS011;19638;49.080;11.896;2024-01-30T04:42:37;69.70;;;28.77;;
33266;SDS011;19638;49.080;11.896;2024-01-30T04:46:40;66.80;;;25.50;;
33266;SDS011;19638;49.080;11.896;2024-01-30T04:50:44;68.87;;;26.80;;
33266;SDS011;19638;49.080;11.896;2024-01-30T04:54:47;72.10;;;26.07;;
33266;SDS011;19638;49.080;11.896;2024-01-30T04:58:51;77.60;;;27.67;;
33266;SDS011;19638;49.080;11.896;2024-01-30T05:02:54;67.60;;;27.20;;
33266;SDS011;19638;49.080;11.896;2024-01-30T05:06:58;66.90;;;25.03;;
33266;SDS011;19638;49.080;11.896;2024-01-30T05:11:01;66.57;;;26.23;;
33266;SDS011;19638;49.080;11.896;2024-01-30T05:15:07;77.73;;;26.80;;
33266;SDS011;19638;49.080;11.896;2024-01-30T05:19:11;71.87;;;26.47;;
33266;SDS011;19638;49.080;11.896;2024-01-30T05:23:14;74.77;;;28.13;;
33266;SDS011;19638;49.080;11.896;2024-01-30T05:27:17;71.77;;;28.77;;
33266;SDS011;19638;49.080;11.896;2024-01-30T05:31:22;72.60;;;28.00;;
33266;SDS011;19638;49.080;11.896;2024-01-30T05:35:27;66.10;;;26.43;;
33266;SDS011;19638;49.080;11.896;2024-01-30T05:39:30;65.87;;;24.70;;
33266;SDS011;19638;49.080;11.896;2024-01-30T05:43:34;52.17;;;23.07;;
33266;SDS011;19638;49.080;11.896;2024-01-30T05:47:39;52.23;;;21.97;;
33266;SDS011;19638;49.080;11.896;2024-01-30T05:51:42;51.30;;;20.73;;
33266;SDS011;19638;49.080;11.896;2024-01-30T05:55:45;49.00;;;19.63;;
33266;SDS011;19638;49.080;11.896;2024-01-30T05:59:48;36.30;;;17.70;;
33266;SDS011;19638;49.080;11.896;2024-01-30T06:03:54;39.97;;;18.63;;
33266;SDS011;19638;49.080;11.896;2024-01-30T06:07:58;57.90;;;21.67;;
33266;SDS011;19638;49.080;11.896;2024-01-30T06:12:01;61.57;;;23.13;;
33266;SDS011;19638;49.080;11.896;2024-01-30T06:16:08;56.30;;;20.87;;
33266;SDS011;19638;49.080;11.896;2024-01-30T06:20:13;59.47;;;25.33;;
33266;SDS011;19638;49.080;11.896;2024-01-30T06:24:17;60.30;;;24.90;;
33266;SDS011;19638;49.080;11.896;2024-01-30T06:28:20;53.97;;;22.13;;
33266;SDS011;19638;49.080;11.896;2024-01-30T06:32:23;60.53;;;23.50;;
33266;SDS011;19638;49.080;11.896;2024-01-30T06:36:28;59.00;;;23.83;;
33266;SDS011;19638;49.080;11.896;2024-01-30T06:40:31;61.67;;;23.73;;
33266;SDS011;19638;49.080;11.896;2024-01-30T06:44:34;56.80;;;23.77;;
33266;SDS011;19638;49.080;11.896;2024-01-30T06:48:38;64.87;;;25.30;;
33266;SDS011;19638;49.080;11.896;2024-01-30T06:52:43;57.30;;;23.37;;
33266;SDS011;19638;49.080;11.896;2024-01-30T06:56:46;55.30;;;22.77;;
33266;SDS011;19638;49.080;11.896;2024-01-30T07:00:49;62.77;;;23.10;;
33266;SDS011;19638;49.080;11.896;2024-01-30T07:04:54;66.30;;;24.30;;
33266;SDS011;19638;49.080;11.896;2024-01-30T07:08:59;61.47;;;24.10;;
33266;SDS011;19638;49.080;11.896;2024-01-30T07:13:02;60.27;;;24.80;;
33266;SDS011;19638;49.080;11.896;2024-01-30T07:17:06;63.10;;;23.67;;
33266;SDS011;19638;49.080;11.896;2024-01-30T07:21:09;66.87;;;24.50;;
33266;SDS011;19638;49.080;11.896;2024-01-30T07:25:14;65.60;;;25.10;;
33266;SDS011;19638;49.080;11.896;2024-01-30T07:29:18;59.83;;;25.13;;
33266;SDS011;19638;49.080;11.896;2024-01-30T07:33:21;64.23;;;24.30;;
33266;SDS011;19638;49.080;11.896;2024-01-30T07:37:24;64.37;;;25.83;;
33266;SDS011;19638;49.080;11.896;2024-01-30T07:41:29;66.97;;;26.47;;
33266;SDS011;19638;49.080;11.896;2024-01-30T07:45:33;72.47;;;27.53;;
33266;SDS011;19638;49.080;11.896;2024-01-30T07:49:36;73.63;;;27.37;;
33266;SDS011;19638;49.080;11.896;2024-01-30T07:53:43;65.63;;;26.90;;
33266;SDS011;19638;49.080;11.896;2024-01-30T07:57:47;74.23;;;27.90;;
33266;SDS011;19638;49.080;11.896;2024-01-30T08:01:53;65.97;;;26.20;;
33266;SDS011;19638;49.080;11.896;2024-01-30T08:05:57;61.83;;;25.90;;
33266;SDS011;19638;49.080;11.896;2024-01-30T08:10:01;68.00;;;26.30;;
33266;SDS011;19638;49.080;11.896;2024-01-30T08:14:06;58.97;;;24.37;;
33266;SDS011;19638;49.080;11.896;2024-01-30T08:18:09;58.90;;;23.87;;
33266;SDS011;19638;49.080;11.896;2024-01-30T08:22:12;55.87;;;23.50;;
33266;SDS011;19638;49.080;11.896;2024-01-30T08:26:15;61.87;;;24.30;;
33266;SDS011;19638;49.080;11.896;2024-01-30T08:30:20;63.87;;;25.17;;
33266;SDS011;19638;49.080;11.896;2024-01-30T08:34:23;55.80;;;25.50;;
33266;SDS011;19638;49.080;11.896;2024-01-30T08:38:26;61.20;;;25.93;;
33266;SDS011;19638;49.080;11.896;2024-01-30T08:42:30;57.47;;;25.60;;
33266;SDS011;19638;49.080;11.896;2024-01-30T08:46:36;58.87;;;25.33;;
33266;SDS011;19638;49.080;11.896;2024-01-30T08:50:39;56.20;;;25.60;;
33266;SDS011;19638;49.080;11.896;2024-01-30T08:54:42;55.20;;;24.10;;
33266;SDS011;19638;49.080;11.896;2024-01-30T08:58:45;60.97;;;26.47;;
33266;SDS011;19638;49.080;11.896;2024-01-30T09:02:50;60.43;;;25.60;;
33266;SDS011;19638;49.080;11.896;2024-01-30T09:06:53;54.03;;;24.43;;
33266;SDS011;19638;49.080;11.896;2024-01-30T09:10:56;62.87;;;25.57;;
33266;SDS011;19638;49.080;11.896;2024-01-30T09:15:00;58.33;;;26.23;;
33266;SDS011;19638;49.080;11.896;2024-01-30T09:19:05;53.87;;;26.70;;
33266;SDS011;19638;49.080;11.896;2024-01-30T09:23:08;53.10;;;25.47;;
33266;SDS011;19638;49.080;11.896;2024-01-30T09:27:12;59.23;;;26.23;;
33266;SDS011;19638;49.080;11.896;2024-01-30T09:31:15;61.67;;;27.37;;
33266;SDS011;19638;49.080;11.896;2024-01-30T09:35:24;59.03;;;26.07;;
33266;SDS011;19638;49.080;11.896;2024-01-30T09:39:27;53.20;;;25.60;;
33266;SDS011;19638;49.080;11.896;2024-01-30T09:43:31;54.97;;;25.93;;
33266;SDS011;19638;49.080;11.896;2024-01-30T09:47:38;51.53;;;25.40;;
33266;SDS011;19638;49.080;11.896;2024-01-30T09:51:45;50.27;;;24.87;;
33266;SDS011;19638;49.080;11.896;2024-01-30T09:55:50;54.00;;;24.57;;
33266;SDS011;19638;49.080;11.896;2024-01-30T09:59:53;53.10;;;25.90;;
33266;SDS011;19638;49.080;11.896;2024-01-30T10:03:57;54.63;;;24.80;;
33266;SDS011;19638;49.080;11.896;2024-01-30T10:08:01;53.20;;;25.17;;
33266;SDS011;19638;49.080;11.896;2024-01-30T10:12:09;46.33;;;23.53;;
33266;SDS011;19638;49.080;11.896;2024-01-30T10:16:13;52.30;;;25.63;;
33266;SDS011;19638;49.080;11.896;2024-01-30T10:20:17;46.47;;;23.93;;
33266;SDS011;19638;49.080;11.896;2024-01-30T10:24:25;52.10;;;23.57;;
33266;SDS011;19638;49.080;11.896;2024-01-30T10:28:28;47.20;;;23.97;;
33266;SDS011;19638;49.080;11.896;2024-01-30T10:32:32;47.77;;;22.60;;
33266;SDS011;19638;49.080;11.896;2024-01-30T10:36:38;48.53;;;23.07;;
33266;SDS011;19638;49.080;11.896;2024-01-30T10:40:45;45.17;;;22.67;;
33266;SDS011;19638;49.080;11.896;2024-01-30T10:44:59;43.90;;;21.93;;
33266;SDS011;19638;49.080;11.896;2024-01-30T10:49:05;42.10;;;21.10;;
33266;SDS011;19638;49.080;11.896;2024-01-30T10:53:09;45.87;;;23.17;;
33266;SDS011;19638;49.080;11.896;2024-01-30T10:57:17;48.13;;;21.83;;
33266;SDS011;19638;49.080;11.896;2024-01-30T11:01:21;46.20;;;22.53;;
33266;SDS011;19638;49.080;11.896;2024-01-30T11:05:25;47.10;;;21.33;;
33266;SDS011;19638;49.080;11.896;2024-01-30T11:09:36;44.37;;;21.80;;
33266;SDS011;19638;49.080;11.896;2024-01-30T11:13:41;46.50;;;22.20;;
33266;SDS011;19638;49.080;11.896;2024-01-30T11:17:45;40.07;;;21.07;;
33266;SDS011;19638;49.080;11.896;2024-01-30T11:21:54;43.23;;;20.73;;
33266;SDS011;19638;49.080;11.896;2024-01-30T11:25:59;39.97;;;20.07;;
33266;SDS011;19638;49.080;11.896;2024-01-30T11:30:06;39.63;;;20.80;;
33266;SDS011;19638;49.080;11.896;2024-01-30T11:34:10;37.60;;;19.83;;
33266;SDS011;19638;49.080;11.896;2024-01-30T11:38:14;39.00;;;20.03;;
33266;SDS011;19638;49.080;11.896;2024-01-30T11:42:17;39.00;;;20.73;;
33266;SDS011;19638;49.080;11.896;2024-01-30T11:46:25;35.30;;;18.10;;
33266;SDS011;19638;49.080;11.896;2024-01-30T11:50:29;31.57;;;18.10;;
33266;SDS011;19638;49.080;11.896;2024-01-30T11:54:32;35.10;;;18.63;;
33266;SDS011;19638;49.080;11.896;2024-01-30T11:58:36;32.23;;;18.70;;
33266;SDS011;19638;49.080;11.896;2024-01-30T12:02:40;36.40;;;19.87;;
33266;SDS011;19638;49.080;11.896;2024-01-30T12:06:44;32.03;;;17.70;;
33266;SDS011;19638;49.080;11.896;2024-01-30T12:10:54;36.07;;;18.70;;
33266;SDS011;19638;49.080;11.896;2024-01-30T12:14:58;34.20;;;18.63;;
33266;SDS011;19638;49.080;11.896;2024-01-30T12:19:02;33.53;;;18.55;;
33266;SDS011;19638;49.080;11.896;2024-01-30T12:23:06;29.80;;;17.10;;
33266;SDS011;19638;49.080;11.896;2024-01-30T12:27:09;32.13;;;17.73;;
33266;SDS011;19638;49.080;11.896;2024-01-30T12:31:12;37.93;;;18.93;;
33266;SDS011;19638;49.080;11.896;2024-01-30T12:35:17;43.10;;;21.02;;
33266;SDS011;19638;49.080;11.896;2024-01-30T12:39:21;32.63;;;18.55;;
33266;SDS011;19638;49.080;11.896;2024-01-30T12:43:25;33.50;;;18.65;;
33266;SDS011;19638;49.080;11.896;2024-01-30T12:47:39;34.17;;;18.08;;
33266;SDS011;19638;49.080;11.896;2024-01-30T12:51:44;32.47;;;17.15;;
33266;SDS011;19638;49.080;11.896;2024-01-30T12:55:48;31.27;;;17.47;;
33266;SDS011;19638;49.080;11.896;2024-01-30T12:59:52;30.85;;;17.35;;
33266;SDS011;19638;49.080;11.896;2024-01-30T13:03:55;31.23;;;17.40;;
33266;SDS011;19638;49.080;11.896;2024-01-30T13:08:01;34.97;;;18.87;;
33266;SDS011;19638;49.080;11.896;2024-01-30T13:12:05;37.42;;;19.10;;
33266;SDS011;19638;49.080;11.896;2024-01-30T13:16:08;32.47;;;18.23;;
33266;SDS011;19638;49.080;11.896;2024-01-30T13:20:11;34.35;;;18.65;;
33266;SDS011;19638;49.080;11.896;2024-01-30T13:24:19;38.77;;;18.43;;
33266;SDS011;19638;49.080;11.896;2024-01-30T13:28:23;34.27;;;18.70;;
33266;SDS011;19638;49.080;11.896;2024-01-30T13:32:27;39.92;;;19.17;;
33266;SDS011;19638;49.080;11.896;2024-01-30T13:36:30;34.80;;;18.95;;
33266;SDS011;19638;49.080;11.896;2024-01-30T13:40:35;36.10;;;18.77;;
33266;SDS011;19638;49.080;11.896;2024-01-30T13:44:38;31.10;;;17.42;;
33266;SDS011;19638;49.080;11.896;2024-01-30T13:48:42;35.58;;;18.90;;
33266;SDS011;19638;49.080;11.896;2024-01-30T13:52:45;39.78;;;20.50;;
33266;SDS011;19638;49.080;11.896;2024-01-30T13:56:49;37.83;;;19.42;;
33266;SDS011;19638;49.080;11.896;2024-01-30T14:00:53;33.03;;;19.05;;
33266;SDS011;19638;49.080;11.896;2024-01-30T14:04:56;43.55;;;19.92;;
33266;SDS011;19638;49.080;11.896;2024-01-30T14:08:59;34.25;;;18.35;;
33266;SDS011;19638;49.080;11.896;2024-01-30T14:13:10;31.70;;;17.50;;
33266;SDS011;19638;49.080;11.896;2024-01-30T14:17:14;29.13;;;17.40;;
33266;SDS011;19638;49.080;11.896;2024-01-30T14:21:17;33.47;;;19.43;;
33266;SDS011;19638;49.080;11.896;2024-01-30T14:25:20;35.10;;;18.30;;
33266;SDS011;19638;49.080;11.896;2024-01-30T14:29:25;33.47;;;18.93;;
33266;SDS011;19638;49.080;11.896;2024-01-30T14:33:28;31.37;;;18.50;;
33266;SDS011;19638;49.080;11.896;2024-01-30T14:37:31;36.60;;;19.77;;
33266;SDS011;19638;49.080;11.896;2024-01-30T14:41:34;37.43;;;19.23;;
33266;SDS011;19638;49.080;11.896;2024-01-30T14:45:42;35.37;;;18.93;;
33266;SDS011;19638;49.080;11.896;2024-01-30T14:49:47;33.17;;;18.33;;
33266;SDS011;19638;49.080;11.896;2024-01-30T14:53:50;51.33;;;24.70;;
33266;SDS011;19638;49.080;11.896;2024-01-30T14:57:58;1137.37;;;509.30;;
33266;SDS011;19638;49.080;11.896;2024-01-30T15:02:05;598.17;;;231.65;;
33266;SDS011;19638;49.080;11.896;2024-01-30T15:06:08;514.10;;;193.33;;
33266;SDS011;19638;49.080;11.896;2024-01-30T15:10:12;807.50;;;332.83;;
33266;SDS011;19638;49.080;11.896;2024-01-30T15:14:15;992.30;;;395.03;;
33266;SDS011;19638;49.080;11.896;2024-01-30T15:18:20;79.83;;;36.87;;
33266;SDS011;19638;49.080;11.896;2024-01-30T15:22:23;44.70;;;23.83;;
33266;SDS011;19638;49.080;11.896;2024-01-30T15:26:26;45.20;;;21.83;;
33266;SDS011;19638;49.080;11.896;2024-01-30T15:30:29;39.63;;;21.90;;
33266;SDS011;19638;49.080;11.896;2024-01-30T15:34:34;48.53;;;26.10;;
33266;SDS011;19638;49.080;11.896;2024-01-30T15:38:37;43.17;;;20.70;;
33266;SDS011;19638;49.080;11.896;2024-01-30T15:42:41;39.00;;;20.73;;
33266;SDS011;19638;49.080;11.896;2024-01-30T15:46:45;45.10;;;20.37;;
33266;SDS011;19638;49.080;11.896;2024-01-30T15:50:49;38.57;;;19.60;;
33266;SDS011;19638;49.080;11.896;2024-01-30T15:54:54;35.93;;;19.17;;
33266;SDS011;19638;49.080;11.896;2024-01-30T15:58:58;40.57;;;20.00;;
33266;SDS011;19638;49.080;11.896;2024-01-30T16:03:03;40.50;;;21.47;;
33266;SDS011;19638;49.080;11.896;2024-01-30T16:07:09;37.27;;;20.40;;
33266;SDS011;19638;49.080;11.896;2024-01-30T16:11:12;45.10;;;22.20;;
33266;SDS011;19638;49.080;11.896;2024-01-30T16:15:19;43.77;;;22.13;;
33266;SDS011;19638;49.080;11.896;2024-01-30T16:19:22;45.83;;;22.33;;
33266;SDS011;19638;49.080;11.896;2024-01-30T16:23:27;50.53;;;23.67;;
33266;SDS011;19638;49.080;11.896;2024-01-30T16:27:30;48.57;;;28.00;;
33266;SDS011;19638;49.080;11.896;2024-01-30T16:31:34;49.30;;;25.67;;
33266;SDS011;19638;49.080;11.896;2024-01-30T16:35:37;45.30;;;23.20;;
33266;SDS011;19638;49.080;11.896;2024-01-30T16:39:48;51.57;;;23.10;;
33266;SDS011;19638;49.080;11.896;2024-01-30T16:43:52;47.17;;;22.93;;
33266;SDS011;19638;49.080;11.896;2024-01-30T16:47:55;46.20;;;22.67;;
33266;SDS011;19638;49.080;11.896;2024-01-30T16:51:58;44.90;;;22.37;;
33266;SDS011;19638;49.080;11.896;2024-01-30T16:56:05;45.93;;;22.20;;
33266;SDS011;19638;49.080;11.896;2024-01-30T17:00:08;47.93;;;23.13;;
33266;SDS011;19638;49.080;11.896;2024-01-30T17:04:14;48.47;;;23.10;;
33266;SDS011;19638;49.080;11.896;2024-01-30T17:08:17;48.67;;;22.67;;
33266;SDS011;19638;49.080;11.896;2024-01-30T17:12:25;51.30;;;23.13;;
33266;SDS011;19638;49.080;11.896;2024-01-30T17:16:29;51.23;;;25.67;;
33266;SDS011;19638;49.080;11.896;2024-01-30T17:20:32;53.53;;;25.87;;
33266;SDS011;19638;49.080;11.896;2024-01-30T17:24:35;50.70;;;24.73;;
33266;SDS011;19638;49.080;11.896;2024-01-30T17:28:52;54.83;;;25.20;;
33266;SDS011;19638;49.080;11.896;2024-01-30T17:32:55;55.07;;;26.33;;
33266;SDS011;19638;49.080;11.896;2024-01-30T17:37:00;53.70;;;27.20;;
33266;SDS011;19638;49.080;11.896;2024-01-30T17:41:03;56.87;;;27.43;;
33266;SDS011;19638;49.080;11.896;2024-01-30T17:45:14;55.23;;;27.47;;
33266;SDS011;19638;49.080;11.896;2024-01-30T17:49:19;62.40;;;27.40;;
33266;SDS011;19638;49.080;11.896;2024-01-30T17:53:22;59.60;;;26.60;;
33266;SDS011;19638;49.080;11.896;2024-01-30T17:57:28;63.17;;;28.60;;
33266;SDS011;19638;49.080;11.896;2024-01-30T18:01:33;49.00;;;25.17;;
33266;SDS011;19638;49.080;11.896;2024-01-30T18:05:37;58.63;;;25.77;;
33266;SDS011;19638;49.080;11.896;2024-01-30T18:09:40;58.47;;;27.40;;
33266;SDS011;19638;49.080;11.896;2024-01-30T18:13:43;55.40;;;26.57;;
33266;SDS011;19638;49.080;11.896;2024-01-30T18:17:48;50.63;;;23.47;;
33266;SDS011;19638;49.080;11.896;2024-01-30T18:21:51;50.10;;;25.33;;
33266;SDS011;19638;49.080;11.896;2024-01-30T18:25:55;51.23;;;25.47;;
33266;SDS011;19638;49.080;11.896;2024-01-30T18:30:02;57.07;;;27.57;;
33266;SDS011;19638;49.080;11.896;2024-01-30T18:34:07;56.73;;;26.37;;
33266;SDS011;19638;49.080;11.896;2024-01-30T18:38:10;55.80;;;26.77;;
33266;SDS011;19638;49.080;11.896;2024-01-30T18:42:13;59.37;;;26.27;;
33266;SDS011;19638;49.080;11.896;2024-01-30T18:46:18;55.80;;;26.73;;
33266;SDS011;19638;49.080;11.896;2024-01-30T18:50:26;57.87;;;27.73;;
33266;SDS011;19638;49.080;11.896;2024-01-30T18:54:29;60.53;;;27.73;;
33266;SDS011;19638;49.080;11.896;2024-01-30T18:58:32;56.83;;;27.57;;
33266;SDS011;19638;49.080;11.896;2024-01-30T19:02:35;59.03;;;27.23;;
33266;SDS011;19638;49.080;11.896;2024-01-30T19:06:40;66.33;;;28.30;;
33266;SDS011;19638;49.080;11.896;2024-01-30T19:10:43;60.73;;;28.87;;
33266;SDS011;19638;49.080;11.896;2024-01-30T19:14:47;65.47;;;28.43;;
33266;SDS011;19638;49.080;11.896;2024-01-30T19:18:53;60.23;;;28.13;;
33266;SDS011;19638;49.080;11.896;2024-01-30T19:22:57;61.23;;;28.10;;
33266;SDS011;19638;49.080;11.896;2024-01-30T19:27:01;66.27;;;29.20;;
33266;SDS011;19638;49.080;11.896;2024-01-30T19:31:04;63.43;;;29.83;;
33266;SDS011;19638;49.080;11.896;2024-01-30T19:35:08;69.33;;;29.57;;
33266;SDS011;19638;49.080;11.896;2024-01-30T19:39:12;65.83;;;29.60;;
33266;SDS011;19638;49.080;11.896;2024-01-30T19:43:15;66.93;;;30.67;;
33266;SDS011;19638;49.080;11.896;2024-01-30T19:47:19;64.03;;;29.87;;
33266;SDS011;19638;49.080;11.896;2024-01-30T19:51:23;67.27;;;29.70;;
33266;SDS011;19638;49.080;11.896;2024-01-30T19:55:28;65.00;;;29.30;;
33266;SDS011;19638;49.080;11.896;2024-01-30T19:59:32;61.97;;;27.93;;
33266;SDS011;19638;49.080;11.896;2024-01-30T20:03:35;54.80;;;28.07;;
33266;SDS011;19638;49.080;11.896;2024-01-30T20:07:39;62.93;;;29.47;;
33266;SDS011;19638;49.080;11.896;2024-01-30T20:11:43;59.60;;;27.77;;
33266;SDS011;19638;49.080;11.896;2024-01-30T20:15:46;69.10;;;29.60;;
33266;SDS011;19638;49.080;11.896;2024-01-30T20:19:51;61.70;;;29.13;;
33266;SDS011;19638;49.080;11.896;2024-01-30T20:23:55;67.63;;;29.60;;
33266;SDS011;19638;49.080;11.896;2024-01-30T20:28:00;63.53;;;29.83;;
33266;SDS011;19638;49.080;11.896;2024-01-30T20:32:04;66.63;;;29.90;;
33266;SDS011;19638;49.080;11.896;2024-01-30T20:36:07;81.57;;;30.67;;
33266;SDS011;19638;49.080;11.896;2024-01-30T20:40:11;65.67;;;28.07;;
33266;SDS011;19638;49.080;11.896;2024-01-30T20:44:15;55.97;;;26.93;;
33266;SDS011;19638;49.080;11.896;2024-01-30T20:48:20;61.77;;;28.07;;
33266;SDS011;19638;49.080;11.896;2024-01-30T20:52:23;61.70;;;27.77;;
33266;SDS011;19638;49.080;11.896;2024-01-30T20:56:27;64.40;;;28.13;;
33266;SDS011;19638;49.080;11.896;2024-01-30T21:00:33;66.13;;;30.10;;
33266;SDS011;19638;49.080;11.896;2024-01-30T21:04:36;67.13;;;29.20;;
33266;SDS011;19638;49.080;11.896;2024-01-30T21:08:39;63.50;;;29.33;;
33266;SDS011;19638;49.080;11.896;2024-01-30T21:12:43;71.27;;;30.47;;
33266;SDS011;19638;49.080;11.896;2024-01-30T21:16:48;72.53;;;29.57;;
33266;SDS011;19638;49.080;11.896;2024-01-30T21:20:52;61.97;;;30.00;;
33266;SDS011;19638;49.080;11.896;2024-01-30T21:24:56;71.30;;;32.70;;
33266;SDS011;19638;49.080;11.896;2024-01-30T21:29:00;72.73;;;32.07;;
33266;SDS011;19638;49.080;11.896;2024-01-30T21:33:05;76.70;;;33.47;;
33266;SDS011;19638;49.080;11.896;2024-01-30T21:37:09;86.17;;;34.93;;
33266;SDS011;19638;49.080;11.896;2024-01-30T21:41:13;77.60;;;34.60;;
33266;SDS011;19638;49.080;11.896;2024-01-30T21:45:16;80.50;;;32.37;;
33266;SDS011;19638;49.080;11.896;2024-01-30T21:49:23;72.97;;;32.40;;
33266;SDS011;19638;49.080;11.896;2024-01-30T21:53:26;82.67;;;32.67;;
33266;SDS011;19638;49.080;11.896;2024-01-30T21:57:29;67.57;;;32.07;;
33266;SDS011;19638;49.080;11.896;2024-01-30T22:01:32;71.57;;;31.00;;
33266;SDS011;19638;49.080;11.896;2024-01-30T22:05:37;64.80;;;30.57;;
33266;SDS011;19638;49.080;11.896;2024-01-30T22:09:40;68.07;;;32.03;;
33266;SDS011;19638;49.080;11.896;2024-01-30T22:13:43;73.50;;;32.60;;
33266;SDS011;19638;49.080;11.896;2024-01-30T22:17:47;72.27;;;31.80;;
33266;SDS011;19638;49.080;11.896;2024-01-30T22:21:51;69.63;;;31.47;;
33266;SDS011;19638;49.080;11.896;2024-01-30T22:25:54;64.03;;;29.97;;
33266;SDS011;19638;49.080;11.896;2024-01-30T22:29:57;60.37;;;29.43;;
33266;SDS011;19638;49.080;11.896;2024-01-30T22:34:01;57.13;;;27.60;;
33266;SDS011;19638;49.080;11.896;2024-01-30T22:38:05;61.17;;;28.20;;
33266;SDS011;19638;49.080;11.896;2024-01-30T22:42:09;56.70;;;27.30;;
33266;SDS011;19638;49.080;11.896;2024-01-30T22:46:12;58.83;;;27.43;;
33266;SDS011;19638;49.080;11.896;2024-01-30T22:50:17;53.80;;;26.63;;
33266;SDS011;19638;49.080;11.896;2024-01-30T22:54:22;57.73;;;28.10;;
33266;SDS011;19638;49.080;11.896;2024-01-30T22:58:25;61.10;;;27.40;;
33266;SDS011;19638;49.080;11.896;2024-01-30T23:02:28;60.07;;;26.67;;
33266;SDS011;19638;49.080;11.896;2024-01-30T23:06:31;56.40;;;26.87;;
33266;SDS011;19638;49.080;11.896;2024-01-30T23:10:36;58.83;;;27.63;;
33266;SDS011;19638;49.080;11.896;2024-01-30T23:14:39;56.70;;;26.80;;
33266;SDS011;19638;49.080;11.896;2024-01-30T23:18:42;58.63;;;28.80;;
33266;SDS011;19638;49.080;11.896;2024-01-30T23:22:46;55.97;;;26.97;;
33266;SDS011;19638;49.080;11.896;2024-01-30T23:26:50;53.60;;;27.07;;
33266;SDS011;19638;49.080;11.896;2024-01-30T23:30:53;58.70;;;27.07;;
33266;SDS011;19638;49.080;11.896;2024-01-30T23:34:59;54.57;;;26.90;;
33266;SDS011;19638;49.080;11.896;2024-01-30T23:39:02;54.63;;;25.97;;
33266;SDS011;19638;49.080;11.896;2024-01-30T23:43:07;57.53;;;26.53;;
33266;SDS011;19638;49.080;11.896;2024-01-30T23:47:10;58.30;;;27.23;;
33266;SDS011;19638;49.080;11.896;2024-01-30T23:51:13;54.30;;;26.40;;
33266;SDS011;19638;49.080;11.896;2024-01-30T23:55:16;53.27;;;25.67;;
33266;SDS011;19638;49.080;11.896;2024-01-30T23:59:21;50.97;;;26.37;;
